Time;durP1;ratioP1;P1;durP2;ratioP2;P2;SDS_P1;SDS_P2;PMS_P1;PMS_P2;Temp;Humidity;BMP_temperature;BMP_pressure;BME280_temperature;BME280_humidity;BME280_pressure;Samples;Min_cycle;Max_cycle;Signal;HPM_P1;HPM_P2
2023/05/24 00:00:42;;;;;;;5.00;3.38;;;13.80;99.90;;;;;;4998986;28;20034;-38
2023/05/24 00:03:08;;;;;;;5.30;3.28;;;13.80;99.90;;;;;;4998350;28;20566;-39
2023/05/24 00:05:36;;;;;;;3.83;3.38;;;13.70;99.90;;;;;;4996752;28;20034;-39
2023/05/24 00:08:02;;;;;;;3.63;3.28;;;13.70;99.90;;;;;;5003028;28;20030;-39
2023/05/24 00:10:28;;;;;;;4.45;4.05;;;13.60;99.90;;;;;;5002418;28;20483;-39
2023/05/24 00:12:54;;;;;;;5.32;4.03;;;13.60;99.90;;;;;;4998403;28;20037;-39
2023/05/24 00:15:20;;;;;;;4.25;3.85;;;13.60;99.90;;;;;;4994420;28;20476;-39
2023/05/24 00:17:45;;;;;;;5.15;3.83;;;13.50;99.90;;;;;;4997650;28;20034;-38
2023/05/24 00:20:12;;;;;;;4.95;3.67;;;13.50;99.90;;;;;;4991172;28;20396;-39
2023/05/24 00:22:39;;;;;;;3.78;3.42;;;13.50;99.90;;;;;;5001212;28;20030;-38
2023/05/24 00:25:05;;;;;;;5.28;3.50;;;13.50;99.90;;;;;;5006694;28;20034;-39
2023/05/24 00:27:31;;;;;;;4.18;3.47;;;13.50;99.90;;;;;;5002941;28;20088;-39
2023/05/24 00:29:57;;;;;;;5.32;4.00;;;13.70;99.90;;;;;;4995195;28;20022;-39
2023/05/24 00:32:22;;;;;;;4.10;3.67;;;13.60;99.90;;;;;;5005755;28;20026;-39
2023/05/24 00:34:48;;;;;;;4.03;3.35;;;13.50;99.90;;;;;;5001249;28;20108;-39
2023/05/24 00:37:14;;;;;;;4.38;3.50;;;13.50;99.90;;;;;;5007185;28;20498;-39
2023/05/24 00:39:40;;;;;;;4.00;3.60;;;13.40;99.90;;;;;;4998997;28;20080;-39
2023/05/24 00:42:05;;;;;;;3.90;3.50;;;13.40;99.90;;;;;;4998420;28;20064;-39
2023/05/24 00:44:31;;;;;;;3.83;3.45;;;13.50;99.90;;;;;;4999633;28;20507;-39
2023/05/24 00:46:57;;;;;;;6.95;3.60;;;13.50;99.90;;;;;;5003277;28;20126;-39
2023/05/24 00:49:23;;;;;;;4.00;3.40;;;13.60;99.90;;;;;;4998232;28;20088;-39
2023/05/24 00:51:51;;;;;;;3.35;3.00;;;13.60;99.90;;;;;;4998802;28;20062;-39
2023/05/24 00:54:17;;;;;;;5.15;3.50;;;13.70;99.90;;;;;;5000573;28;20045;-39
2023/05/24 00:56:43;;;;;;;4.25;3.55;;;13.60;99.90;;;;;;5000404;28;20038;-39
2023/05/24 00:59:09;;;;;;;4.45;3.78;;;13.60;99.90;;;;;;5000817;28;20045;-39
2023/05/24 01:01:36;;;;;;;5.70;3.70;;;13.60;99.90;;;;;;4995228;28;20754;-40
2023/05/24 01:04:02;;;;;;;4.55;3.60;;;13.60;99.90;;;;;;4999487;28;20507;-40
2023/05/24 01:06:29;;;;;;;4.18;3.65;;;13.60;99.90;;;;;;4998525;28;20407;-40
2023/05/24 01:09:26;;;;;;;4.40;3.60;;;13.60;99.90;;;;;;4997660;28;20041;-40
2023/05/24 01:12:10;;;;;;;4.18;3.78;;;13.50;99.90;;;;;;5001799;28;20022;-40
2023/05/24 01:14:52;;;;;;;5.40;3.97;;;13.40;99.90;;;;;;4997140;28;20049;-41
2023/05/24 01:17:45;;;;;;;5.80;4.35;;;13.30;99.90;;;;;;4993822;28;20026;-40
2023/05/24 01:20:13;;;;;;;5.72;3.90;;;13.10;99.90;;;;;;4993938;28;20399;-40
2023/05/24 01:23:06;;;;;;;7.15;4.28;;;13.00;99.90;;;;;;4997319;28;20030;-41
2023/05/24 01:25:52;;;;;;;4.65;3.88;;;13.10;99.90;;;;;;5017053;28;20719;-40
2023/05/24 01:28:20;;;;;;;5.55;4.13;;;13.00;99.90;;;;;;4998139;28;20029;-40
2023/05/24 01:30:46;;;;;;;6.25;4.50;;;13.00;99.90;;;;;;4994494;28;20938;-40
2023/05/24 01:33:12;;;;;;;6.18;4.63;;;12.80;99.90;;;;;;5002524;28;20026;-41
2023/05/24 01:35:41;;;;;;;6.85;5.18;;;12.80;99.90;;;;;;5004936;28;20117;-41
2023/05/24 01:38:09;;;;;;;6.32;5.07;;;12.80;99.90;;;;;;5004086;28;20035;-41
2023/05/24 01:40:35;;;;;;;;;;;12.90;99.90;;;;;;5001713;28;20038;-41
2023/05/24 01:43:17;;;;;;;5.50;4.55;;;13.00;99.90;;;;;;5005151;28;20000;-41
2023/05/24 01:46:16;;;;;;;7.22;4.88;;;13.00;99.90;;;;;;5003886;28;20083;-41
2023/05/24 01:49:03;;;;;;;6.38;4.50;;;13.00;99.90;;;;;;5005724;28;20052;-41
2023/05/24 01:51:38;;;;;;;7.77;5.40;;;13.00;99.90;;;;;;5001215;28;20073;-41
2023/05/24 01:54:05;;;;;;;7.18;4.60;;;12.90;99.90;;;;;;5000839;28;20034;-41
2023/05/24 01:56:31;;;;;;;7.10;5.35;;;12.60;99.90;;;;;;5005146;28;20383;-41
2023/05/24 01:58:58;;;;;;;8.35;5.13;;;12.70;99.90;;;;;;5001403;28;20080;-41
2023/05/24 02:01:25;;;;;;;6.57;4.93;;;12.60;99.90;;;;;;5001620;28;20793;-40
2023/05/24 02:03:51;;;;;;;7.82;5.00;;;12.50;99.90;;;;;;4996630;28;20395;-41
2023/05/24 02:06:17;;;;;;;7.70;5.20;;;12.60;99.90;;;;;;5002731;28;20026;-41
2023/05/24 02:08:42;;;;;;;6.35;4.95;;;12.50;99.90;;;;;;5004985;28;20554;-41
2023/05/24 02:11:08;;;;;;;5.90;3.92;;;12.40;99.90;;;;;;5002809;28;20025;-41
2023/05/24 02:13:33;;;;;;;6.15;4.45;;;12.30;99.90;;;;;;5001497;28;20018;-41
2023/05/24 02:15:59;;;;;;;5.20;3.95;;;12.20;99.90;;;;;;4998465;28;20061;-41
2023/05/24 02:18:24;;;;;;;5.60;4.30;;;12.20;99.90;;;;;;5005809;28;20486;-41
2023/05/24 02:20:50;;;;;;;6.32;4.50;;;12.10;99.90;;;;;;5005456;28;20084;-41
2023/05/24 02:23:16;;;;;;;6.22;4.22;;;12.10;99.90;;;;;;5005135;28;20041;-41
2023/05/24 02:25:41;;;;;;;6.72;4.40;;;12.10;99.90;;;;;;5000438;28;20029;-41
2023/05/24 02:28:07;;;;;;;6.50;4.53;;;12.10;99.90;;;;;;5001094;28;20108;-41
2023/05/24 02:30:33;;;;;;;7.63;4.40;;;12.10;99.90;;;;;;4999946;28;20018;-40
2023/05/24 02:32:59;;;;;;;7.38;4.45;;;12.10;99.90;;;;;;5001340;28;20030;-41
2023/05/24 02:35:25;;;;;;;6.25;4.40;;;12.00;99.90;;;;;;5006429;28;20487;-40
2023/05/24 02:37:51;;;;;;;6.53;4.55;;;11.90;99.90;;;;;;5003696;28;20041;-41
2023/05/24 02:40:16;;;;;;;6.63;4.40;;;11.90;99.90;;;;;;5003348;28;20134;-41
2023/05/24 02:42:42;;;;;;;6.47;4.30;;;11.90;99.90;;;;;;5000395;28;20374;-41
2023/05/24 02:45:08;;;;;;;6.30;4.05;;;11.80;99.90;;;;;;5000171;28;20026;-41
2023/05/24 02:47:33;;;;;;;6.35;4.38;;;11.80;99.90;;;;;;5006502;28;20037;-41
2023/05/24 02:49:59;;;;;;;6.57;4.15;;;11.80;99.90;;;;;;4997800;28;20029;-41
2023/05/24 02:52:25;;;;;;;6.82;4.60;;;11.80;99.90;;;;;;5001454;28;20479;-41
2023/05/24 02:54:51;;;;;;;5.95;4.25;;;11.70;99.90;;;;;;5000009;28;20034;-41
2023/05/24 02:57:17;;;;;;;6.10;4.18;;;11.70;99.90;;;;;;5011669;28;20022;-41
2023/05/24 02:59:42;;;;;;;8.30;4.25;;;11.90;99.90;;;;;;5002625;28;20038;-41
2023/05/24 03:02:08;;;;;;;6.57;4.15;;;12.00;99.90;;;;;;4998599;28;20066;-40
2023/05/24 03:04:34;;;;;;;6.38;3.72;;;11.90;99.90;;;;;;4997885;28;20554;-41
2023/05/24 03:07:00;;;;;;;6.45;3.95;;;11.90;99.90;;;;;;5003360;28;20483;-41
2023/05/24 03:09:26;;;;;;;6.25;3.50;;;11.90;99.90;;;;;;5006448;28;20030;-41
2023/05/24 03:11:53;;;;;;;5.43;3.50;;;11.70;99.90;;;;;;5004328;28;20065;-41
2023/05/24 03:14:21;;;;;;;6.65;3.55;;;11.80;99.90;;;;;;5004857;28;20038;-41
2023/05/24 03:16:47;;;;;;;4.90;3.38;;;11.50;99.90;;;;;;4998807;28;20077;-41
2023/05/24 03:19:13;;;;;;;9.32;3.70;;;11.20;99.90;;;;;;4995888;28;20054;-41
2023/05/24 03:21:38;;;;;;;5.20;3.50;;;11.10;99.90;;;;;;5005657;28;20056;-41
2023/05/24 03:24:04;;;;;;;6.03;3.53;;;11.00;99.90;;;;;;4999732;28;20081;-41
2023/05/24 03:26:30;;;;;;;5.75;3.70;;;11.00;99.90;;;;;;4998259;28;20038;-40
2023/05/24 03:28:56;;;;;;;4.95;3.17;;;11.00;99.90;;;;;;4997003;28;20097;-41
2023/05/24 03:31:23;;;;;;;6.07;3.22;;;10.90;99.90;;;;;;4999176;28;20040;-40
2023/05/24 03:33:48;;;;;;;6.85;3.67;;;11.00;99.90;;;;;;5007308;28;20490;-41
2023/05/24 03:36:14;;;;;;;7.13;3.45;;;10.90;99.90;;;;;;4995590;28;20045;-41
2023/05/24 03:38:39;;;;;;;7.25;3.75;;;11.00;99.90;;;;;;5000950;28;20467;-41
2023/05/24 03:41:05;;;;;;;6.93;3.83;;;11.00;99.90;;;;;;4998239;28;20442;-41
2023/05/24 03:43:30;;;;;;;5.07;3.72;;;11.00;99.90;;;;;;5001706;28;20045;-40
2023/05/24 03:45:56;;;;;;;6.22;3.75;;;10.90;99.90;;;;;;5001873;28;20033;-41
2023/05/24 03:48:21;;;;;;;8.18;3.75;;;11.00;99.90;;;;;;5000308;28;20036;-41
2023/05/24 03:50:47;;;;;;;5.00;3.40;;;11.10;99.90;;;;;;4994543;28;20110;-41
2023/05/24 03:53:13;;;;;;;4.90;3.20;;;11.00;99.90;;;;;;5002174;28;20069;-41
2023/05/24 03:55:38;;;;;;;4.60;3.88;;;10.90;99.90;;;;;;4998509;28;20600;-41
2023/05/24 03:58:04;;;;;;;4.00;3.15;;;10.80;99.90;;;;;;5002676;28;20064;-41
2023/05/24 04:00:29;;;;;;;5.38;3.35;;;10.80;99.90;;;;;;4999148;28;20504;-40
2023/05/24 04:02:55;;;;;;;6.15;3.88;;;10.70;99.90;;;;;;4999616;28;20042;-41
2023/05/24 04:05:25;;;;;;;4.25;3.08;;;10.70;99.90;;;;;;4998718;28;20038;-41
2023/05/24 04:07:51;;;;;;;6.45;3.90;;;10.70;99.90;;;;;;4999833;28;20045;-41
2023/05/24 04:10:17;;;;;;;4.32;3.38;;;10.60;99.90;;;;;;4996760;28;20019;-41
2023/05/24 04:12:44;;;;;;;6.85;3.25;;;10.60;99.90;;;;;;5002778;28;20026;-41
2023/05/24 04:15:14;;;;;;;4.93;3.30;;;10.80;99.90;;;;;;5000803;28;20026;-41
2023/05/24 04:17:41;;;;;;;9.15;4.13;;;10.80;99.90;;;;;;5004284;28;20061;-41
2023/05/24 04:20:08;;;;;;;6.20;3.88;;;10.80;99.90;;;;;;5002085;28;20041;-41
2023/05/24 04:22:35;;;;;;;5.68;3.42;;;10.80;99.90;;;;;;5002770;28;20030;-41
2023/05/24 04:25:01;;;;;;;6.63;3.35;;;10.70;99.90;;;;;;5002055;28;20476;-41
2023/05/24 04:27:27;;;;;;;7.25;3.80;;;10.80;99.90;;;;;;5003753;28;20026;-41
2023/05/24 04:29:53;;;;;;;8.13;4.00;;;10.80;99.90;;;;;;4997702;28;20503;-41
2023/05/24 04:32:18;;;;;;;5.50;3.75;;;10.80;99.90;;;;;;4996799;28;20033;-41
2023/05/24 04:34:45;;;;;;;4.47;3.67;;;10.80;99.90;;;;;;4996653;28;20038;-41
2023/05/24 04:37:12;;;;;;;6.18;3.47;;;10.90;99.90;;;;;;4996617;28;20030;-40
2023/05/24 04:39:38;;;;;;;6.82;3.22;;;10.80;99.90;;;;;;5000961;28;20026;-41
2023/05/24 04:42:04;;;;;;;7.93;3.88;;;10.80;99.90;;;;;;5000812;28;20160;-41
2023/05/24 04:44:30;;;;;;;7.63;3.58;;;10.90;99.90;;;;;;5000843;28;20502;-41
2023/05/24 04:46:56;;;;;;;7.50;3.53;;;10.80;99.90;;;;;;5006238;28;20034;-41
2023/05/24 04:49:22;;;;;;;8.15;3.33;;;10.80;99.90;;;;;;4998221;28;20026;-41
2023/05/24 04:51:47;;;;;;;6.95;3.55;;;10.80;99.90;;;;;;4999572;28;20093;-41
2023/05/24 04:54:13;;;;;;;7.40;3.67;;;10.80;99.90;;;;;;4995133;28;20076;-41
2023/05/24 04:56:39;;;;;;;7.88;3.92;;;10.90;99.90;;;;;;5004139;28;20112;-41
2023/05/24 04:59:06;;;;;;;5.95;3.53;;;10.80;99.90;;;;;;5004059;28;20046;-41
2023/05/24 05:01:32;;;;;;;12.50;3.67;;;10.80;99.90;;;;;;5000240;28;20096;-40
2023/05/24 05:03:58;;;;;;;5.47;3.88;;;10.70;99.90;;;;;;4993461;28;20435;-41
2023/05/24 05:06:23;;;;;;;7.28;3.60;;;10.80;99.90;;;;;;4997710;28;20030;-41
2023/05/24 05:08:50;;;;;;;7.30;3.83;;;10.90;99.90;;;;;;5001507;28;20064;-41
2023/05/24 05:11:17;;;;;;;8.07;3.92;;;10.80;99.90;;;;;;5009521;28;20030;-41
2023/05/24 05:13:43;;;;;;;8.98;3.80;;;10.70;99.90;;;;;;5001487;28;20022;-40
2023/05/24 05:16:08;;;;;;;10.57;4.38;;;10.70;99.90;;;;;;4997797;28;20034;-40
2023/05/24 05:18:34;;;;;;;7.95;4.72;;;10.80;99.90;;;;;;5001810;28;20487;-41
2023/05/24 05:21:00;;;;;;;8.57;4.30;;;10.70;99.90;;;;;;5008439;28;20137;-41
2023/05/24 05:23:25;;;;;;;7.28;4.80;;;10.80;99.90;;;;;;5002111;28;20021;-41
2023/05/24 05:25:51;;;;;;;12.30;4.63;;;10.70;99.90;;;;;;5004262;28;20065;-40
2023/05/24 05:28:16;;;;;;;7.63;4.03;;;10.70;99.90;;;;;;4999600;28;20034;-41
2023/05/24 05:30:42;;;;;;;8.77;4.13;;;10.90;99.90;;;;;;4994880;28;20091;-40
2023/05/24 05:33:07;;;;;;;6.85;4.10;;;10.90;99.90;;;;;;5007364;28;20029;-41
2023/05/24 05:35:33;;;;;;;8.80;4.43;;;10.80;99.90;;;;;;5006670;28;20046;-41
2023/05/24 05:37:58;;;;;;;7.05;3.80;;;10.80;99.90;;;;;;5007073;28;20500;-40
2023/05/24 05:40:24;;;;;;;10.00;4.07;;;10.80;99.90;;;;;;5001092;28;20488;-41
2023/05/24 05:42:50;;;;;;;9.27;4.28;;;10.80;99.90;;;;;;4999753;28;20102;-41
2023/05/24 05:45:15;;;;;;;6.20;4.30;;;10.80;99.90;;;;;;4997911;28;20541;-40
2023/05/24 05:47:42;;;;;;;8.85;7.25;;;10.90;99.90;;;;;;5005809;28;20029;-41
2023/05/24 05:50:08;;;;;;;8.52;4.35;;;10.90;99.90;;;;;;5005486;28;20033;-41
2023/05/24 05:52:33;;;;;;;7.88;4.30;;;10.90;99.90;;;;;;5000007;28;20087;-41
2023/05/24 05:54:59;;;;;;;9.02;4.78;;;10.90;99.90;;;;;;5004444;28;20413;-40
2023/05/24 05:57:25;;;;;;;8.00;4.63;;;10.90;99.90;;;;;;5005437;28;20030;-41
2023/05/24 05:59:51;;;;;;;8.90;4.97;;;10.90;99.90;;;;;;5000764;28;20025;-41
2023/05/24 06:02:17;;;;;;;7.93;4.38;;;11.00;99.90;;;;;;4998736;28;20053;-40
2023/05/24 06:04:44;;;;;;;8.60;4.95;;;11.20;99.90;;;;;;4999193;28;20718;-41
2023/05/24 06:07:10;;;;;;;8.82;4.57;;;11.20;99.90;;;;;;5002425;28;20026;-40
2023/05/24 06:09:35;;;;;;;8.48;4.90;;;11.30;99.90;;;;;;4998339;28;20024;-41
2023/05/24 06:12:01;;;;;;;9.73;4.70;;;11.20;99.90;;;;;;5000791;28;20030;-41
2023/05/24 06:14:27;;;;;;;9.23;5.32;;;11.30;99.90;;;;;;5000617;28;20061;-41
2023/05/24 06:16:53;;;;;;;8.88;4.90;;;11.20;99.90;;;;;;5004993;28;20578;-41
2023/05/24 06:19:19;;;;;;;7.60;4.60;;;11.30;99.90;;;;;;4999170;28;20022;-41
2023/05/24 06:21:48;;;;;;;13.40;5.25;;;11.30;99.90;;;;;;5000422;28;20440;-40
2023/05/24 06:24:19;;;;;;;14.60;5.50;;;11.50;99.90;;;;;;5004151;28;20034;-41
2023/05/24 06:26:45;;;;;;;7.40;4.53;;;11.60;99.90;;;;;;5002402;28;20488;-41
2023/05/24 06:29:10;;;;;;;9.20;4.43;;;11.50;99.90;;;;;;4995896;28;20023;-41
2023/05/24 06:31:36;;;;;;;7.40;4.45;;;11.70;99.90;;;;;;5002618;28;20037;-40
2023/05/24 06:34:02;;;;;;;6.85;4.50;;;12.00;99.90;;;;;;5002022;28;20128;-40
2023/05/24 06:36:28;;;;;;;9.35;5.20;;;12.00;99.90;;;;;;4997747;28;20037;-41
2023/05/24 06:38:53;;;;;;;11.20;5.03;;;11.90;99.90;;;;;;4998291;28;20032;-41
2023/05/24 06:41:19;;;;;;;8.15;4.88;;;11.80;99.90;;;;;;5000994;28;20029;-41
2023/05/24 06:43:45;;;;;;;7.65;4.78;;;12.00;99.90;;;;;;5003520;28;20038;-41
2023/05/24 06:46:11;;;;;;;7.35;4.50;;;11.90;99.90;;;;;;5000778;28;20096;-41
2023/05/24 06:48:36;;;;;;;8.75;4.55;;;12.10;99.90;;;;;;4998594;28;20030;-41
2023/05/24 06:51:02;;;;;;;9.88;4.90;;;12.20;99.90;;;;;;5001213;28;20105;-40
2023/05/24 06:53:28;;;;;;;8.57;4.95;;;12.40;99.90;;;;;;4995842;28;20026;-41
2023/05/24 06:55:54;;;;;;;9.23;5.68;;;12.40;99.90;;;;;;5004221;28;20064;-41
2023/05/24 06:58:19;;;;;;;10.65;4.95;;;12.30;99.90;;;;;;4998448;28;20040;-41
2023/05/24 07:00:45;;;;;;;7.75;4.80;;;12.20;99.90;;;;;;5000060;28;20085;-41
2023/05/24 07:03:12;;;;;;;8.40;4.78;;;12.10;99.90;;;;;;5000475;28;20166;-41
2023/05/24 07:05:37;;;;;;;9.57;4.72;;;12.00;99.90;;;;;;4994923;28;20046;-41
2023/05/24 07:08:03;;;;;;;13.95;5.88;;;11.90;99.90;;;;;;5007090;28;20030;-41
2023/05/24 07:10:29;;;;;;;11.23;4.97;;;11.90;99.90;;;;;;5002743;28;20044;-41
2023/05/24 07:12:55;;;;;;;7.10;4.78;;;11.80;99.90;;;;;;5000293;28;20030;-41
2023/05/24 07:15:20;;;;;;;10.13;4.95;;;11.70;99.90;;;;;;5005755;28;20088;-41
2023/05/24 07:17:47;;;;;;;7.75;5.45;;;11.60;99.90;;;;;;4997658;28;20471;-41
2023/05/24 07:20:13;;;;;;;12.32;5.00;;;11.50;99.90;;;;;;5003242;28;20031;-41
2023/05/24 07:22:42;;;;;;;7.55;5.07;;;11.50;99.90;;;;;;4997476;28;20113;-41
2023/05/24 07:25:08;;;;;;;11.10;4.72;;;11.60;99.90;;;;;;4999523;28;20054;-41
2023/05/24 07:27:34;;;;;;;10.88;5.00;;;11.60;99.90;;;;;;5001998;28;20185;-41
2023/05/24 07:30:01;;;;;;;7.28;4.50;;;11.60;99.90;;;;;;4994633;28;20030;-41
2023/05/24 07:32:27;;;;;;;12.85;5.55;;;11.60;99.90;;;;;;5001541;28;20034;-41
2023/05/24 07:34:53;;;;;;;7.22;4.28;;;11.70;99.90;;;;;;5002076;28;20036;-42
2023/05/24 07:37:18;;;;;;;9.48;4.72;;;11.90;99.90;;;;;;4997523;28;20491;-41
2023/05/24 07:39:44;;;;;;;8.38;4.63;;;11.90;99.90;;;;;;4996208;28;20088;-41
2023/05/24 07:42:10;;;;;;;10.75;5.18;;;12.00;99.90;;;;;;5028838;28;20025;-41
2023/05/24 07:44:35;;;;;;;8.95;4.68;;;12.10;99.90;;;;;;4999994;28;20023;-41
2023/05/24 07:47:01;;;;;;;7.95;5.03;;;12.10;99.90;;;;;;4998229;28;20029;-41
2023/05/24 07:49:27;;;;;;;10.95;4.80;;;12.20;99.90;;;;;;5001361;28;20411;-41
2023/05/24 07:51:57;;;;;;;8.63;4.57;;;12.20;99.90;;;;;;4994061;28;20145;-41
2023/05/24 07:54:22;;;;;;;6.45;4.22;;;12.20;99.90;;;;;;4999559;28;20042;-41
2023/05/24 07:56:48;;;;;;;5.88;3.80;;;12.30;99.90;;;;;;4997158;28;20395;-41
2023/05/24 07:59:14;;;;;;;8.07;4.57;;;12.30;99.90;;;;;;5005500;28;20038;-41
2023/05/24 08:01:40;;;;;;;7.78;4.47;;;12.40;99.90;;;;;;4997293;28;20101;-41
2023/05/24 08:04:08;;;;;;;10.88;4.45;;;12.50;99.90;;;;;;5004489;28;20102;-41
2023/05/24 08:06:34;;;;;;;;;;;12.50;99.90;;;;;;4999573;28;20034;-41
2023/05/24 08:09:00;;;;;;;7.43;4.63;;;12.60;99.90;;;;;;5000310;28;20299;-41
2023/05/24 08:11:26;;;;;;;9.40;4.60;;;12.60;99.90;;;;;;4995517;28;20056;-41
2023/05/24 08:13:51;;;;;;;6.15;4.07;;;12.60;99.90;;;;;;4997261;28;20070;-41
2023/05/24 08:16:17;;;;;;;7.55;4.57;;;12.90;99.90;;;;;;4998995;28;20870;-41
2023/05/24 08:18:43;;;;;;;7.80;4.90;;;13.00;99.90;;;;;;4991056;28;20064;-41
2023/05/24 08:21:09;;;;;;;13.15;6.93;;;13.10;99.90;;;;;;4998494;28;20057;-41
2023/05/24 08:23:35;;;;;;;9.98;4.65;;;13.00;99.90;;;;;;5001664;28;20148;-41
2023/05/24 08:26:01;;;;;;;7.50;4.03;;;13.00;99.90;;;;;;4995719;28;20034;-41
2023/05/24 08:28:28;;;;;;;11.18;4.90;;;12.90;99.90;;;;;;4999010;28;20149;-41
2023/05/24 08:30:53;;;;;;;7.43;4.07;;;12.80;99.90;;;;;;4999560;28;20128;-41
2023/05/24 08:33:21;;;;;;;7.18;4.30;;;12.80;99.90;;;;;;4996461;28;20101;-41
2023/05/24 08:35:47;;;;;;;8.90;3.95;;;12.80;99.90;;;;;;5002138;28;20042;-41
2023/05/24 08:38:13;;;;;;;8.65;4.38;;;12.70;99.90;;;;;;4995187;28;20034;-41
2023/05/24 08:40:39;;;;;;;9.05;4.00;;;12.70;99.90;;;;;;4996761;28;20084;-41
2023/05/24 08:43:10;;;;;;;8.27;4.18;;;12.70;99.90;;;;;;5000012;28;20452;-41
2023/05/24 08:45:37;;;;;;;10.02;4.00;;;12.70;99.90;;;;;;4999048;28;20034;-41
2023/05/24 08:48:06;;;;;;;8.80;4.25;;;12.70;99.90;;;;;;5001942;28;20500;-41
2023/05/24 08:50:33;;;;;;;9.15;4.00;;;12.60;99.90;;;;;;4992590;28;20033;-42
2023/05/24 08:53:02;;;;;;;8.30;4.43;;;12.60;99.90;;;;;;5003424;28;20088;-41
2023/05/24 08:55:30;;;;;;;8.30;4.43;;;12.70;99.90;;;;;;4996822;28;20702;-41
2023/05/24 08:57:56;;;;;;;10.38;4.90;;;12.60;99.90;;;;;;4999616;28;20034;-41
2023/05/24 09:00:22;;;;;;;7.97;4.88;;;12.60;99.90;;;;;;4997439;28;20383;-41
2023/05/24 09:02:48;;;;;;;9.85;4.90;;;12.60;99.90;;;;;;5001274;28;20411;-41
2023/05/24 09:05:15;;;;;;;7.30;4.43;;;12.70;99.90;;;;;;4995919;28;20038;-41
2023/05/24 09:07:43;;;;;;;9.10;4.20;;;12.70;99.90;;;;;;5004480;28;20124;-41
2023/05/24 09:10:09;;;;;;;5.93;4.97;;;12.80;99.90;;;;;;4998775;28;20018;-41
2023/05/24 09:12:42;;;;;;;8.93;5.47;;;12.80;99.90;;;;;;5000810;28;20380;-41
2023/05/24 09:15:08;;;;;;;6.75;4.07;;;12.80;99.90;;;;;;4993814;28;20030;-41
2023/05/24 09:17:35;;;;;;;6.32;4.57;;;12.90;99.90;;;;;;4998297;28;20034;-41
2023/05/24 09:20:01;;;;;;;10.05;5.22;;;12.90;99.90;;;;;;4997123;28;20040;-41
2023/05/24 09:22:29;;;;;;;7.18;3.97;;;12.90;99.90;;;;;;4998399;28;20415;-41
2023/05/24 09:25:02;;;;;;;6.95;4.30;;;12.90;99.90;;;;;;4996416;28;20038;-41
2023/05/24 09:27:30;;;;;;;9.57;4.60;;;13.10;99.90;;;;;;4998714;28;20026;-41
2023/05/24 09:29:56;;;;;;;;;;;13.10;99.90;;;;;;5001578;28;20030;-41
2023/05/24 09:32:23;;;;;;;5.82;3.45;;;13.10;99.90;;;;;;5000594;28;19917;-41
2023/05/24 09:34:51;;;;;;;10.07;3.97;;;13.20;99.90;;;;;;4995392;28;20034;-41
2023/05/24 09:37:18;;;;;;;;;;;13.30;99.90;;;;;;4997169;28;20058;-41
2023/05/24 09:39:49;;;;;;;9.70;4.15;;;13.40;99.90;;;;;;4994602;28;20357;-41
2023/05/24 09:42:17;;;;;;;5.32;4.13;;;13.50;99.90;;;;;;4998134;28;20042;-41
2023/05/24 09:44:43;;;;;;;8.25;4.40;;;13.60;99.90;;;;;;5000788;28;20515;-41
2023/05/24 09:47:11;;;;;;;6.88;3.80;;;13.60;99.90;;;;;;4999227;28;20033;-41
2023/05/24 09:49:37;;;;;;;7.85;4.40;;;13.60;99.90;;;;;;4992567;28;20038;-41
2023/05/24 09:52:02;;;;;;;9.10;3.90;;;13.60;99.90;;;;;;4999235;28;20371;-41
2023/05/24 09:54:30;;;;;;;8.50;4.22;;;13.40;99.90;;;;;;5000812;28;20044;-41
2023/05/24 09:57:00;;;;;;;14.32;4.63;;;13.50;99.90;;;;;;5002710;28;20156;-41
2023/05/24 09:59:27;;;;;;;6.57;4.20;;;13.70;99.90;;;;;;5001127;28;20034;-41
2023/05/24 10:02:09;;;;;;;8.75;4.32;;;13.70;99.90;;;;;;4998989;28;20053;-41
2023/05/24 10:04:34;;;;;;;11.70;4.28;;;13.80;99.90;;;;;;5004182;28;20395;-41
2023/05/24 10:07:01;;;;;;;9.13;4.22;;;13.60;99.90;;;;;;4998373;28;20026;-41
2023/05/24 10:09:32;;;;;;;6.32;3.95;;;13.50;99.90;;;;;;5003852;28;20153;-41
2023/05/24 10:12:04;;;;;;;8.23;4.13;;;13.50;99.90;;;;;;5002410;28;20030;-41
2023/05/24 10:14:38;;;;;;;7.05;4.28;;;13.70;99.90;;;;;;4997451;28;20053;-41
2023/05/24 10:17:07;;;;;;;6.25;3.60;;;13.90;99.90;;;;;;5001799;28;20105;-41
2023/05/24 10:19:33;;;;;;;7.57;3.90;;;14.30;99.90;;;;;;5004670;28;20025;-41
2023/05/24 10:22:01;;;;;;;8.35;3.63;;;14.40;99.90;;;;;;5001583;28;20038;-41
2023/05/24 10:24:34;;;;;;;8.77;4.35;;;14.30;99.90;;;;;;5001337;28;20668;-41
2023/05/24 10:27:03;;;;;;;6.45;3.58;;;14.00;99.90;;;;;;5000882;28;20032;-41
2023/05/24 10:30:10;;;;;;;10.50;4.75;;;14.10;99.90;;;;;;4995998;28;20022;-41
2023/05/24 10:32:38;;;;;;;8.10;3.65;;;14.10;99.90;;;;;;5003382;28;20499;-41
2023/05/24 10:35:05;;;;;;;7.68;4.75;;;14.20;99.90;;;;;;4999095;28;20034;-41
2023/05/24 10:37:31;;;;;;;7.35;3.75;;;14.30;99.90;;;;;;4997387;28;20368;-41
2023/05/24 10:39:58;;;;;;;8.60;4.50;;;14.30;99.90;;;;;;5000655;28;20065;-41
2023/05/24 10:42:25;;;;;;;10.60;3.65;;;14.20;99.90;;;;;;5004066;28;20030;-41
2023/05/24 10:44:51;;;;;;;9.95;4.57;;;13.80;99.90;;;;;;5001028;28;20042;-41
2023/05/24 10:47:19;;;;;;;11.38;4.50;;;14.00;99.90;;;;;;5005790;28;20041;-41
2023/05/24 10:49:51;;;;;;;6.90;4.18;;;13.90;99.90;;;;;;5002947;28;20037;-41
2023/05/24 10:52:17;;;;;;;7.13;4.28;;;14.00;99.90;;;;;;5000796;28;20022;-41
2023/05/24 10:55:03;;;;;;;9.05;4.20;;;13.90;99.90;;;;;;4996854;28;20030;-41
2023/05/24 10:57:30;;;;;;;7.28;4.22;;;14.10;99.90;;;;;;5001920;28;20035;-41
2023/05/24 10:59:57;;;;;;;7.75;4.70;;;14.10;99.90;;;;;;5000218;28;20038;-41
2023/05/24 11:02:27;;;;;;;6.47;4.05;;;14.00;99.90;;;;;;5000038;28;20526;-41
2023/05/24 11:04:55;;;;;;;8.65;4.50;;;13.80;99.90;;;;;;4998232;28;20033;-41
2023/05/24 11:07:20;;;;;;;9.23;4.70;;;13.70;99.90;;;;;;5006309;28;20026;-41
2023/05/24 11:09:51;;;;;;;8.80;4.55;;;13.80;99.90;;;;;;5002625;28;20507;-41
2023/05/24 11:12:21;;;;;;;11.10;4.80;;;13.70;99.90;;;;;;4999254;28;20041;-41
2023/05/24 11:14:51;;;;;;;10.25;4.93;;;14.40;99.90;;;;;;4999543;28;20543;-41
2023/05/24 11:17:21;;;;;;;10.07;4.90;;;14.60;99.90;;;;;;4996833;28;20573;-41
2023/05/24 11:19:50;;;;;;;13.05;4.65;;;14.70;99.90;;;;;;4998115;28;20111;-41
2023/05/24 11:22:18;;;;;;;9.05;4.43;;;14.70;99.90;;;;;;5003291;28;20579;-41
2023/05/24 11:24:45;;;;;;;11.52;4.93;;;14.70;99.90;;;;;;5002579;28;20814;-41
2023/05/24 11:27:12;;;;;;;9.98;5.07;;;14.90;99.90;;;;;;4995893;28;20030;-40
2023/05/24 11:29:43;;;;;;;9.03;4.70;;;14.70;99.90;;;;;;4998862;28;20064;-41
2023/05/24 11:32:09;;;;;;;8.35;4.18;;;14.80;99.90;;;;;;4995119;28;20269;-41
2023/05/24 11:34:35;;;;;;;12.43;4.65;;;14.60;99.90;;;;;;5003165;28;20041;-41
2023/05/24 11:37:01;;;;;;;8.70;4.72;;;14.90;99.90;;;;;;4998389;28;20780;-41
2023/05/24 11:39:31;;;;;;;7.55;4.75;;;15.20;99.90;;;;;;4993580;28;20026;-41
2023/05/24 11:41:58;;;;;;;9.02;4.45;;;15.20;99.90;;;;;;4998436;28;20034;-41
2023/05/24 11:44:24;;;;;;;8.52;4.18;;;15.30;99.90;;;;;;4994950;28;20034;-41
2023/05/24 11:46:57;;;;;;;8.88;4.43;;;15.20;99.90;;;;;;5001786;28;20121;-41
2023/05/24 11:49:23;;;;;;;9.38;3.88;;;15.20;99.90;;;;;;4999724;28;20110;-41
2023/05/24 11:51:51;;;;;;;7.75;4.22;;;14.80;99.90;;;;;;5000378;28;20114;-41
2023/05/24 11:54:18;;;;;;;11.83;4.90;;;15.00;99.90;;;;;;4994706;28;20784;-41
2023/05/24 11:56:43;;;;;;;9.30;4.57;;;15.20;99.90;;;;;;5004706;28;20049;-41
2023/05/24 11:59:15;;;;;;;7.97;4.78;;;15.10;99.90;;;;;;4996867;28;20694;-41
2023/05/24 12:01:41;;;;;;;9.35;4.40;;;15.30;99.90;;;;;;5000491;28;20042;-40
2023/05/24 12:04:10;;;;;;;9.70;4.80;;;14.90;99.90;;;;;;4995814;28;20786;-41
2023/05/24 12:06:40;;;;;;;11.52;4.72;;;14.70;99.90;;;;;;5000967;28;20475;-41
2023/05/24 12:09:09;;;;;;;13.65;4.90;;;14.80;99.90;;;;;;5001341;28;20482;-41
2023/05/24 12:11:38;;;;;;;8.82;4.07;;;15.00;99.90;;;;;;5001757;28;20480;-41
2023/05/24 12:14:04;;;;;;;14.07;5.65;;;15.10;99.90;;;;;;4998962;28;20571;-41
2023/05/24 12:16:31;;;;;;;9.23;3.92;;;15.10;99.90;;;;;;4999588;28;20068;-41
2023/05/24 12:18:58;;;;;;;8.35;4.40;;;15.30;99.90;;;;;;4993814;28;20026;-41
2023/05/24 12:21:23;;;;;;;7.50;4.10;;;15.30;99.90;;;;;;4999478;28;20038;-41
2023/05/24 12:23:49;;;;;;;6.97;3.70;;;15.10;99.90;;;;;;5000147;28;20029;-41
2023/05/24 12:26:19;;;;;;;9.18;4.63;;;15.00;99.90;;;;;;4999999;28;20060;-41
2023/05/24 12:28:47;;;;;;;9.82;4.15;;;14.90;99.90;;;;;;4996154;28;20026;-41
2023/05/24 12:31:12;;;;;;;6.97;4.10;;;14.90;99.90;;;;;;5003031;28;20037;-41
2023/05/24 12:33:38;;;;;;;6.63;4.10;;;15.20;99.90;;;;;;5000483;28;20071;-41
2023/05/24 12:36:04;;;;;;;7.95;4.63;;;15.40;99.90;;;;;;4998941;28;20038;-41
2023/05/24 12:38:30;;;;;;;6.85;3.88;;;15.30;99.90;;;;;;4996799;28;20044;-41
2023/05/24 12:40:56;;;;;;;7.53;4.22;;;15.30;99.90;;;;;;4993891;28;20030;-41
2023/05/24 12:43:21;;;;;;;11.68;4.88;;;15.20;99.90;;;;;;4999836;28;20506;-41
2023/05/24 12:45:47;;;;;;;8.43;4.22;;;15.30;99.90;;;;;;4998863;28;20041;-41